Time;durP1;ratioP1;P1;durP2;ratioP2;P2;SDS_P1;SDS_P2;PMS_P1;PMS_P2;Temp;Humidity;BMP_temperature;BMP_pressure;BME280_temperature;BME280_humidity;BME280_pressure;Samples;Min_cycle;Max_cycle;Signal;HPM_P1;HPM_P2
2022/10/02 00:05:48;;;;;;;5.50;4.90;;;;;;;9.25;90.39;98710.64;429329;1273;143745;-61
2022/10/02 00:15:56;;;;;;;6.00;4.50;;;;;;;9.28;90.54;98719.52;438056;1272;148221;-62
2022/10/02 00:26:07;;;;;;;5.70;4.80;;;;;;;9.32;90.80;98724.08;446988;1273;188145;-62
2022/10/02 00:36:26;;;;;;;6.30;4.30;;;;;;;9.37;91.00;98728.41;446621;1275;142884;-61
2022/10/02 00:46:43;;;;;;;5.50;4.60;;;;;;;9.45;90.88;98731.05;447007;1271;144324;-62
2022/10/02 00:57:00;;;;;;;4.90;4.40;;;;;;;9.51;90.93;98737.05;446297;1271;142348;-63
2022/10/02 01:07:08;;;;;;;5.20;4.70;;;;;;;9.54;90.96;98750.64;446763;1274;143046;-61
2022/10/02 01:17:24;;;;;;;5.20;4.70;;;;;;;9.59;91.01;98760.27;445332;1271;143710;-61
2022/10/02 01:27:30;;;;;;;5.20;4.40;;;;;;;9.65;90.92;98768.73;447024;1273;142570;-63
2022/10/02 01:37:44;;;;;;;6.70;5.30;;;;;;;9.71;90.95;98775.98;446977;1271;142884;-62
2022/10/02 01:48:01;;;;;;;6.40;5.70;;;;;;;9.72;90.97;98781.84;446304;1271;142400;-61
2022/10/02 01:58:21;;;;;;;6.20;5.60;;;;;;;9.70;90.97;98784.25;447072;1271;151909;-62
2022/10/02 02:08:34;;;;;;;6.50;6.00;;;;;;;9.70;91.03;98795.46;436747;1271;144634;-62
2022/10/02 02:18:46;;;;;;;7.90;7.30;;;;;;;9.73;91.12;98803.42;431503;1273;141829;-60
2022/10/02 02:28:56;;;;;;;9.10;8.10;;;;;;;9.68;91.42;98812.88;430640;1273;142370;-60
2022/10/02 02:39:06;;;;;;;8.50;7.70;;;;;;;9.65;91.72;98819.55;430093;1270;142644;-61
2022/10/02 02:49:13;;;;;;;9.10;7.70;;;;;;;9.62;92.03;98825.18;430156;1275;142896;-62
2022/10/02 02:59:23;;;;;;;10.10;9.20;;;;;;;9.57;92.21;98826.95;430849;1273;141903;-58
2022/10/02 03:09:32;;;;;;;12.10;11.10;;;;;;;9.56;92.63;98833.70;430434;1273;149669;-60
2022/10/02 03:19:47;;;;;;;10.30;9.40;;;;;;;9.57;92.75;98845.62;430972;1274;147582;-61
2022/10/02 03:29:59;;;;;;;10.90;10.00;;;;;;;9.59;92.75;98845.66;429445;1275;143064;-61
2022/10/02 03:40:08;;;;;;;10.10;9.30;;;;;;;9.60;92.93;98844.90;430530;1273;143422;-61
2022/10/02 03:50:15;;;;;;;8.70;8.00;;;;;;;9.61;93.31;98853.23;431167;1273;142718;-61
2022/10/02 04:00:24;;;;;;;8.90;8.10;;;;;;;9.62;93.63;98856.82;431068;1273;142973;-63
2022/10/02 04:10:36;;;;;;;9.00;8.20;;;;;;;9.63;93.95;98865.27;430204;1273;146984;-62
2022/10/02 04:20:50;;;;;;;10.20;9.20;;;;;;;9.65;94.26;98874.55;429417;1274;143870;-63
2022/10/02 04:30:56;;;;;;;9.80;8.90;;;;;;;9.68;94.40;98888.55;430510;1273;143090;-62
2022/10/02 04:41:17;;;;;;;8.10;7.40;;;;;;;9.68;94.58;98907.41;430305;1273;142085;-63
2022/10/02 04:51:38;;;;;;;7.70;7.10;;;;;;;9.68;94.70;98920.89;430829;1273;143548;-61
2022/10/02 05:01:58;;;;;;;5.90;5.40;;;;;;;9.65;94.55;98936.98;431405;1276;142479;-61
2022/10/02 05:12:24;;;;;;;5.70;5.20;;;;;;;9.62;94.43;98946.79;430100;1273;142380;-61
2022/10/02 05:22:45;;;;;;;5.40;5.00;;;;;;;9.64;94.41;98952.80;431137;1276;142594;-62
2022/10/02 05:33:24;;;;;;;4.00;3.70;;;;;;;9.69;94.34;98960.15;430371;1273;141809;-64
2022/10/02 05:43:36;;;;;;;3.80;3.10;;;;;;;9.78;94.15;98974.74;429783;1276;142822;-62
2022/10/02 05:53:47;;;;;;;4.60;3.70;;;;;;;9.90;94.05;98986.48;430401;1274;141592;-62
2022/10/02 06:04:01;;;;;;;6.50;3.30;;;;;;;10.11;93.76;98995.48;429818;1274;141833;-61
2022/10/02 06:14:14;;;;;;;3.60;3.20;;;;;;;10.32;93.05;99008.67;429281;1275;163067;-61
2022/10/02 06:24:25;;;;;;;3.30;2.40;;;;;;;10.61;92.12;99017.80;431576;1273;142964;-63
2022/10/02 06:34:31;;;;;;;4.00;1.80;;;;;;;10.86;91.38;99026.31;430139;1275;148413;-62
2022/10/02 06:44:46;;;;;;;4.00;1.40;;;;;;;11.85;90.19;99032.75;430087;1273;145656;-61
2022/10/02 06:55:07;;;;;;;4.00;1.20;;;;;;;11.60;87.73;99033.38;435047;1273;141293;-61
2022/10/02 07:05:39;;;;;;;4.90;1.90;;;;;;;11.32;87.67;99039.93;431255;1274;143286;-61
2022/10/02 07:16:11;;;;;;;3.70;1.90;;;;;;;11.18;87.71;99042.36;446386;1273;142544;-61
2022/10/02 07:26:46;;;;;;;3.10;1.70;;;;;;;11.23;87.63;99051.05;445579;1275;143485;-62
2022/10/02 07:37:06;;;;;;;4.50;2.70;;;;;;;11.41;87.21;99058.84;446188;1275;200291;-62
2022/10/02 07:47:22;;;;;;;4.60;1.80;;;;;;;11.62;86.59;99062.16;445675;1275;145250;-61
2022/10/02 07:57:38;;;;;;;4.60;1.50;;;;;;;12.15;85.95;99063.84;444757;1274;144362;-61
2022/10/02 08:07:49;;;;;;;4.20;2.00;;;;;;;12.64;84.01;99067.44;439147;1274;142402;-62
2022/10/02 08:17:59;;;;;;;5.90;1.90;;;;;;;12.45;82.97;99070.02;446087;1274;143819;-62
2022/10/02 08:28:29;;;;;;;5.00;2.70;;;;;;;12.24;82.78;99068.27;446855;1274;142586;-62
2022/10/02 08:38:41;;;;;;;4.60;1.90;;;;;;;12.59;82.63;99068.55;446054;1274;143082;-63
2022/10/02 08:49:28;;;;;;;6.60;2.60;;;;;;;12.91;81.22;99063.98;446419;1275;158801;-62
2022/10/02 09:00:08;;;;;;;5.80;2.30;;;;;;;13.18;79.79;99061.77;431662;1274;142637;-61
2022/10/02 09:10:57;;;;;;;2.40;1.40;;;;;;;14.85;77.50;99050.98;431106;1274;155737;-61
2022/10/02 09:21:16;;;;;;;4.00;2.00;;;;;;;15.00;74.16;99042.06;429707;1274;146232;-63
2022/10/02 09:32:06;;;;;;;5.10;1.50;;;;;;;14.97;73.88;99044.67;430893;1274;183604;-62
2022/10/02 09:42:34;;;;;;;6.40;2.50;;;;;;;15.42;72.46;99040.04;429910;1274;142856;-63
2022/10/02 09:53:10;;;;;;;5.30;2.20;;;;;;;15.30;70.75;99040.73;431355;1274;142233;-63
2022/10/02 10:03:42;;;;;;;5.00;1.60;;;;;;;15.54;70.32;99046.15;430120;1274;143133;-63
2022/10/02 10:14:20;;;;;;;3.70;1.40;;;;;;;15.61;69.42;99052.07;432467;1274;142511;-62
2022/10/02 10:24:44;;;;;;;;;;;;;;;15.50;68.68;99050.94;430722;1274;143032;-61
2022/10/02 10:35:20;;;;;;;6.30;3.10;;;;;;;15.49;68.42;99039.38;430600;1275;129945;-62
2022/10/02 10:45:41;;;;;;;9.00;2.20;;;;;;;15.54;68.12;99039.09;429976;1274;142140;-62
2022/10/02 10:56:18;;;;;;;4.40;2.70;;;;;;;14.95;68.67;99038.67;430500;1275;142758;-62
2022/10/02 11:06:37;;;;;;;5.80;2.50;;;;;;;14.74;69.26;99027.65;430190;1275;143389;-62
2022/10/02 11:17:07;;;;;;;5.70;2.30;;;;;;;14.59;69.28;99022.98;431108;1275;147280;-60
2022/10/02 11:27:30;;;;;;;4.50;2.30;;;;;;;14.32;69.65;99008.63;430016;1276;148018;-61
2022/10/02 11:37:53;;;;;;;4.30;2.20;;;;;;;13.74;70.80;99001.39;429986;1275;143220;-62
2022/10/02 11:48:32;;;;;;;6.60;2.60;;;;;;;13.47;73.36;99000.17;429246;1275;143025;-63
2022/10/02 11:58:53;;;;;;;4.40;3.20;;;;;;;14.23;74.46;98985.02;430486;1276;147066;-62
2022/10/02 12:09:10;;;;;;;6.70;2.60;;;;;;;14.43;74.17;98980.01;430543;1274;141952;-63
2022/10/02 12:19:38;;;;;;;7.20;2.90;;;;;;;14.56;73.87;98975.95;430381;1274;147350;-63
2022/10/02 12:30:02;;;;;;;3.60;1.90;;;;;;;14.55;74.03;98980.23;429384;1274;143609;-62
2022/10/02 12:40:21;;;;;;;3.70;1.70;;;;;;;15.14;72.60;98971.96;433072;1275;146809;-62
2022/10/02 12:50:40;;;;;;;4.80;1.60;;;;;;;15.13;70.95;98961.21;429476;1275;143101;-60
2022/10/02 13:01:14;;;;;;;2.60;1.70;;;;;;;14.92;70.02;98964.99;431698;1275;142910;-60
2022/10/02 13:11:31;;;;;;;2.80;1.50;;;;;;;14.72;69.81;98955.98;429568;1275;144198;-63
2022/10/02 13:21:50;;;;;;;2.80;1.40;;;;;;;14.85;69.46;98939.14;429675;1275;141844;-62
2022/10/02 13:32:07;;;;;;;2.30;1.20;;;;;;;14.90;68.65;98929.52;430082;1274;142809;-62
2022/10/02 13:42:28;;;;;;;3.50;1.10;;;;;;;14.41;68.59;98919.13;429730;1273;146866;-61
2022/10/02 13:52:48;;;;;;;4.30;1.50;;;;;;;14.13;68.60;98914.28;429764;1273;142024;-63
2022/10/02 14:03:08;;;;;;;5.30;1.80;;;;;;;14.11;68.60;98910.84;429826;1272;145994;-61
2022/10/02 14:13:32;;;;;;;3.60;1.40;;;;;;;13.96;68.72;98902.35;430095;1273;151594;-61
2022/10/02 14:23:54;;;;;;;5.90;2.30;;;;;;;14.05;69.27;98896.80;429209;1272;148154;-62
2022/10/02 14:34:19;;;;;;;2.00;1.20;;;;;;;13.97;69.12;98886.07;443225;1273;148941;-63
2022/10/02 14:44:44;;;;;;;3.70;1.20;;;;;;;14.01;68.77;98878.69;446076;1274;197407;-63
2022/10/02 14:55:15;;;;;;;7.90;1.40;;;;;;;14.05;68.33;98894.69;436549;1273;144842;-63
2022/10/02 15:05:38;;;;;;;4.40;1.60;;;;;;;13.82;68.25;98905.70;429507;1273;144530;-61
2022/10/02 15:17:53;;;;;;;3.70;1.80;;;;;;;13.57;68.82;98901.02;430444;1273;141970;-61
2022/10/02 15:26:32;;;;;;;5.10;1.60;;;;;;;13.47;69.54;98898.04;429266;1275;142594;-64
2022/10/02 15:36:51;;;;;;;3.10;1.90;;;;;;;13.06;70.40;98904.45;430563;1273;141464;-66
2022/10/02 15:47:08;;;;;;;4.60;2.90;;;;;;;12.53;71.52;98909.41;430369;1273;142395;-63
2022/10/02 15:57:27;;;;;;;7.80;2.10;;;;;;;11.89;72.85;98906.80;429675;1273;142889;-63
2022/10/02 16:07:56;;;;;;;4.40;1.60;;;;;;;11.42;74.16;98914.16;430631;1274;142094;-63
2022/10/02 16:18:24;;;;;;;3.20;2.10;;;;;;;11.10;75.16;98914.42;429919;1273;142457;-62
2022/10/02 16:28:42;;;;;;;5.40;3.40;;;;;;;10.83;76.09;98923.73;444284;1274;142917;-62
2022/10/02 16:38:58;;;;;;;5.40;2.20;;;;;;;10.71;76.76;98927.82;445848;1273;142734;-63
2022/10/02 16:49:18;;;;;;;5.70;2.00;;;;;;;10.57;77.15;98924.49;446988;1272;145272;-63
2022/10/02 16:59:28;;;;;;;3.20;2.40;;;;;;;10.37;77.77;98925.73;446101;1272;144128;-62
2022/10/02 17:09:44;;;;;;;4.60;2.40;;;;;;;10.29;78.50;98931.42;447025;1272;142369;-62
2022/10/02 17:19:53;;;;;;;4.90;3.70;;;;;;;10.31;79.31;98932.50;446203;1273;142547;-62
2022/10/02 17:30:08;;;;;;;5.80;3.50;;;;;;;10.29;80.04;98935.42;446017;1273;143090;-62
2022/10/02 17:40:18;;;;;;;5.90;4.00;;;;;;;10.26;80.95;98929.67;447024;1271;152547;-62
2022/10/02 17:50:59;;;;;;;5.40;3.00;;;;;;;10.27;81.63;98927.52;441697;1271;144645;-61
2022/10/02 18:01:12;;;;;;;7.10;4.10;;;;;;;10.29;81.90;98926.68;443418;1272;143530;-63
2022/10/02 18:11:36;;;;;;;3.30;2.60;;;;;;;10.33;81.57;98933.23;446021;1274;142683;-62
2022/10/02 18:21:52;;;;;;;7.50;3.10;;;;;;;10.11;81.28;98936.54;443252;1273;142114;-61
2022/10/02 18:32:14;;;;;;;8.00;3.00;;;;;;;9.96;81.44;98946.90;446946;1271;142848;-62
2022/10/02 18:42:39;;;;;;;4.00;2.90;;;;;;;9.91;81.26;98945.80;446734;1274;143422;-62
2022/10/02 18:53:14;;;;;;;5.10;3.10;;;;;;;9.86;81.46;98959.66;446766;1274;144003;-63
2022/10/02 19:03:30;;;;;;;6.40;3.40;;;;;;;9.82;81.73;98968.66;444081;1274;142390;-63
2022/10/02 19:13:42;;;;;;;4.30;2.70;;;;;;;9.56;81.68;98978.02;446616;1275;142743;-62
2022/10/02 19:23:52;;;;;;;5.90;3.40;;;;;;;9.39;82.28;98980.04;444903;1274;143461;-61
2022/10/02 19:34:02;;;;;;;4.00;3.30;;;;;;;9.16;82.60;98975.80;446587;1273;143323;-63
2022/10/02 19:44:18;;;;;;;7.60;4.70;;;;;;;9.00;83.58;98981.58;445934;1274;162831;-63
2022/10/02 19:54:30;;;;;;;5.30;4.20;;;;;;;9.02;83.76;98983.41;446758;1274;142574;-63
2022/10/02 20:04:36;;;;;;;5.60;4.20;;;;;;;9.07;84.29;98981.82;446776;1273;142732;-63
2022/10/02 20:14:46;;;;;;;6.40;4.40;;;;;;;9.12;84.56;98986.91;432051;1273;142033;-63
2022/10/02 20:24:59;;;;;;;5.20;4.30;;;;;;;9.11;84.79;98987.10;430393;1273;142613;-63
2022/10/02 20:35:11;;;;;;;6.80;4.20;;;;;;;9.09;85.07;98978.40;429600;1275;141889;-63
2022/10/02 20:45:18;;;;;;;4.50;3.50;;;;;;;8.90;85.47;98980.48;430369;1273;141403;-62
2022/10/02 20:55:34;;;;;;;5.70;4.70;;;;;;;8.67;86.25;98989.15;430272;1273;396914;-62
2022/10/02 21:06:07;;;;;;;7.70;5.20;;;;;;;8.41;86.63;98995.73;429928;1273;142825;-63
2022/10/02 21:16:43;;;;;;;6.80;5.00;;;;;;;8.19;87.04;98998.15;430450;1273;142740;-62
2022/10/02 21:27:19;;;;;;;6.80;4.30;;;;;;;7.97;87.47;98998.10;429959;1273;143264;-64
2022/10/02 21:37:35;;;;;;;5.90;4.20;;;;;;;7.76;88.14;99003.73;431437;1273;142702;-61
2022/10/02 21:48:14;;;;;;;6.20;4.10;;;;;;;7.55;88.38;99003.96;429567;1273;142377;-61
2022/10/02 21:58:58;;;;;;;22.20;5.50;;;;;;;7.52;89.23;98995.80;430396;1273;141859;-62
2022/10/02 22:09:26;;;;;;;6.40;4.80;;;;;;;7.73;89.97;98998.19;429355;1273;146095;-63
2022/10/02 22:19:56;;;;;;;6.90;5.30;;;;;;;7.91;89.93;98992.73;446588;1273;142224;-62
2022/10/02 22:30:03;;;;;;;7.70;5.90;;;;;;;7.82;90.03;98991.55;446207;1272;142531;-62
2022/10/02 22:40:14;;;;;;;7.60;5.80;;;;;;;7.92;90.83;98996.52;446765;1274;143274;-61
2022/10/02 22:50:29;;;;;;;7.10;5.70;;;;;;;8.02;91.07;98990.63;435308;1273;142939;-62
2022/10/02 23:00:49;;;;;;;8.00;4.70;;;;;;;7.89;90.89;98989.53;446823;1274;142306;-63
2022/10/02 23:11:04;;;;;;;6.90;4.70;;;;;;;7.73;91.27;98990.02;446766;1273;142349;-62
2022/10/02 23:21:24;;;;;;;6.50;5.70;;;;;;;7.62;91.59;98984.27;440709;1275;141979;-63
2022/10/02 23:31:36;;;;;;;6.50;5.20;;;;;;;7.57;92.18;98991.48;446864;1274;142408;-63
2022/10/02 23:41:50;;;;;;;5.90;4.70;;;;;;;7.83;92.89;98987.47;439556;1274;142044;-62
2022/10/02 23:52:13;;;;;;;5.90;4.60;;;;;;;8.08;92.57;98993.92;446736;1274;141871;-62
